Euskara    
Meteorología y climatología de Navarra
Datos de la estación - Meteo Navarra

Estación de Getadar GN

Altitud 710 m.


Datos desde el 23/02/2021 hasta el 24/02/2021 en horario solar
Los datos son PROVISIONALES

Anterior Página 1 de 1 Siguiente Descargar: Formato para Excel 2000 o superior   Formato csv   Formato para OpenOffice Calc
Fecha Temperatura Humedad relativa Radiación global Insolación Precipitación Vel. viento 10 m Vel. viento 10 m Dir. viento 10 m
°C % W/m² s l/m² m/s km/h °
23/02/2021 0:00 4.4 98 0.0 0 0.0 0.4 1.5 147
23/02/2021 0:10 4.4 98 0.0 0 0.0 0.9 3.3 158
23/02/2021 0:20 4.5 98 0.0 0 0.0 0.7 2.3 197
23/02/2021 0:30 4.6 98 0.0 0 0.0 0.6 2.3 214
23/02/2021 0:40 4.7 98 0.0 0 0.0 0.2 0.6 162
23/02/2021 0:50 4.8 98 0.0 0 0.0 0.2 0.6 141
23/02/2021 1:00 4.9 98 0.0 0 0.0 0.5 1.8 157
23/02/2021 1:10 4.9 98 0.0 0 0.0 0.9 3.2 227
23/02/2021 1:20 5.0 98 0.0 0 0.0 0.8 2.9 174
23/02/2021 1:30 5.0 98 0.0 0 0.0 0.8 3.0 160
23/02/2021 1:40 5.1 98 0.0 0 0.0 1.7 6.0 188
23/02/2021 1:50 5.1 98 0.0 0 0.0 1.7 6.2 187
23/02/2021 2:00 5.1 98 0.0 0 0.0 1.0 3.6 161
23/02/2021 2:10 5.2 98 0.0 0 0.0 1.0 3.4 162
23/02/2021 2:20 5.3 98 0.0 0 0.0 1.6 5.6 165
23/02/2021 2:30 5.3 98 0.0 0 0.0 1.8 6.3 170
23/02/2021 2:40 5.3 98 0.0 0 0.0 1.7 6.2 165
23/02/2021 2:50 5.3 98 0.0 0 0.0 2.3 8.3 173
23/02/2021 3:00 5.3 98 0.0 0 0.0 2.5 9.1 178
23/02/2021 3:10 5.3 98 0.0 0 0.0 3.4 12.4 184
23/02/2021 3:20 5.2 98 0.0 0 0.0 2.5 9.0 175
23/02/2021 3:30 5.2 98 0.0 0 0.0 2.6 9.4 172
23/02/2021 3:40 5.2 98 0.0 0 0.0 3.1 11.1 173
23/02/2021 3:50 5.2 98 0.0 0 0.0 2.2 7.9 162
23/02/2021 4:00 5.2 98 0.0 0 0.0 2.2 7.9 164
23/02/2021 4:10 5.2 98 0.0 0 0.0 3.5 12.5 176
23/02/2021 4:20 5.3 97 0.0 0 0.0 2.4 8.6 164
23/02/2021 4:30 5.3 97 0.0 0 0.0 2.2 7.8 160
23/02/2021 4:40 5.3 96 0.0 0 0.0 2.2 7.9 166
23/02/2021 4:50 5.3 97 0.0 0 0.0 1.6 5.8 153
23/02/2021 5:00 5.2 97 0.0 0 0.0 1.9 6.9 177
23/02/2021 5:10 5.2 97 0.0 0 0.0 2.0 7.3 166
23/02/2021 5:20 5.1 97 0.0 0 0.0 1.3 4.5 144
23/02/2021 5:30 5.0 97 0.0 0 0.0 0.9 3.2 148
23/02/2021 5:40 5.0 98 0.0 0 0.0 1.1 4.0 153
23/02/2021 5:50 5.0 98 0.0 0 0.0 1.2 4.2 155
23/02/2021 6:00 5.0 98 0.0 0 0.0 1.4 4.9 163
23/02/2021 6:10 5.0 98 0.0 0 0.0 2.5 8.8 182
23/02/2021 6:20 5.0 98 0.0 0 0.0 2.3 8.3 186
23/02/2021 6:30 5.0 98 0.0 0 0.0 2.0 7.3 183
23/02/2021 6:40 5.0 98 0.0 0 0.0 2.0 7.3 178
23/02/2021 6:50 5.0 98 0.0 0 0.0 2.1 7.7 174
23/02/2021 7:00 4.9 98 0.0 0 0.0 2.2 7.7 173
23/02/2021 7:10 5.0 98 10.0 0 0.0 2.4 8.8 175
23/02/2021 7:20 5.0 98 17.8 0 0.0 2.7 9.8 177
23/02/2021 7:30 5.1 98 20.8 0 0.0 2.7 9.6 169
23/02/2021 7:40 5.1 98 32.1 0 0.0 2.7 9.8 169
23/02/2021 7:50 5.1 98 42.2 0 0.0 3.7 13.4 178
23/02/2021 8:00 5.2 98 61.5 0 0.0 3.6 12.9 172
23/02/2021 8:10 5.3 98 72.5 0 0.0 3.4 12.3 167
23/02/2021 8:20 5.3 97 84.2 4 0.0 3.4 12.3 163
23/02/2021 8:30 5.6 94 86.4 4 0.0 4.0 14.4 162
23/02/2021 8:40 5.7 92 91.5 0 0.0 4.4 15.7 167
23/02/2021 8:50 5.8 90 126.4 0 0.0 4.9 17.6 168
23/02/2021 9:00 5.9 89 145.4 0 0.0 4.5 16.1 165
23/02/2021 9:10 6.0 89 148.3 0 0.0 4.2 15.0 164
23/02/2021 9:20 6.0 89 181.9 270 0.0 4.1 14.6 165
23/02/2021 9:30 6.3 88 292.6 424 0.0 5.1 18.5 169
23/02/2021 9:40 6.5 89 277.2 458 0.0 4.1 14.6 163
23/02/2021 9:50 6.8 89 389.4 600 0.0 4.1 14.7 166
23/02/2021 10:00 7.0 88 373.1 556 0.0 4.8 17.1 168
23/02/2021 10:10 6.9 89 352.4 598 0.0 4.5 16.3 165
23/02/2021 10:20 7.4 88 453.1 584 0.0 4.3 15.4 167
23/02/2021 10:30 7.6 87 417.5 566 0.0 3.9 14.1 166
23/02/2021 10:40 7.8 86 476.4 578 0.0 4.6 16.5 166
23/02/2021 10:50 8.3 84 545.2 508 0.0 5.5 19.9 167
23/02/2021 11:00 8.2 83 477.8 462 0.0 5.3 19.1 163
23/02/2021 11:10 8.4 82 438.5 332 0.0 5.9 21.1 167
23/02/2021 11:20 8.7 82 634.9 600 0.0 4.7 17.1 162
23/02/2021 11:30 8.7 81 427.3 312 0.0 6.1 22.1 168
23/02/2021 11:40 8.8 82 630.3 570 0.0 6.4 23.0 172
23/02/2021 11:50 9.0 82 495.9 422 0.0 4.8 17.4 166
23/02/2021 12:00 8.8 82 297.2 140 0.0 5.5 19.8 169
23/02/2021 12:10 8.8 83 333.7 186 0.0 5.5 19.8 169
23/02/2021 12:20 9.0 82 433.1 346 0.0 5.0 17.8 166
23/02/2021 12:30 9.2 81 276.5 134 0.0 4.6 16.6 167
23/02/2021 12:40 9.4 81 407.8 286 0.0 4.9 17.7 169
23/02/2021 12:50 9.5 80 359.7 232 0.0 5.7 20.6 167
23/02/2021 13:00 9.7 80 352.3 220 0.0 5.1 18.2 166
23/02/2021 13:10 9.5 80 228.6 86 0.0 4.8 17.3 163
23/02/2021 13:20 9.6 79 294.3 168 0.0 4.9 17.6 164
23/02/2021 13:30 10.1 77 447.2 380 0.0 5.2 18.7 165
23/02/2021 13:40 10.1 77 205.3 62 0.0 5.4 19.3 167
23/02/2021 13:50 10.2 76 276.8 166 0.0 4.4 15.8 161
23/02/2021 14:00 10.3 74 260.8 110 0.0 4.3 15.5 163
23/02/2021 14:10 10.6 73 316.0 210 0.0 4.1 14.7 162
23/02/2021 14:20 10.7 72 264.2 188 0.0 5.8 20.9 167
23/02/2021 14:30 10.9 72 405.9 338 0.0 4.6 16.6 162
23/02/2021 14:40 10.9 72 292.1 260 0.0 4.7 16.8 161
23/02/2021 14:50 10.8 71 335.8 378 0.0 4.5 16.2 158
23/02/2021 15:00 11.2 70 368.1 426 0.0 5.0 18.1 162
23/02/2021 15:10 11.0 72 197.7 118 0.0 4.0 14.5 162
23/02/2021 15:20 10.7 71 134.2 10 0.0 5.5 19.6 165
23/02/2021 15:30 10.6 72 164.2 96 0.0 4.4 15.9 163
23/02/2021 15:40 10.8 71 189.3 176 0.0 5.3 18.9 162
23/02/2021 15:50 11.1 69 277.4 512 0.0 4.8 17.4 164
23/02/2021 16:00 11.1 69 178.6 284 0.0 4.3 15.3 159
23/02/2021 16:10 11.1 67 203.8 472 0.0 5.0 17.9 161
23/02/2021 16:20 11.3 68 215.0 582 0.0 4.4 15.8 168
23/02/2021 16:30 11.3 68 186.0 600 0.0 4.6 16.4 163
23/02/2021 16:40 11.2 69 159.5 600 0.0 4.6 16.6 164
23/02/2021 16:50 11.0 70 137.6 600 0.0 4.4 15.8 165
23/02/2021 17:00 10.9 71 113.4 600 0.0 5.2 18.8 169
23/02/2021 17:10 10.7 72 89.5 600 0.0 4.2 15.0 165
23/02/2021 17:20 10.5 73 64.3 600 0.0 4.3 15.6 166
23/02/2021 17:30 10.3 74 38.3 600 0.0 3.9 13.9 162
23/02/2021 17:40 10.1 75 26.1 96 0.0 3.8 13.7 163
23/02/2021 17:50 9.9 76 15.5 0 0.0 4.3 15.3 167
23/02/2021 18:00 9.9 76 0.0 0 0.0 3.9 13.9 170
23/02/2021 18:10 9.5 78 0.0 0 0.0 3.3 11.8 174
23/02/2021 18:20 9.2 81 0.0 0 0.0 3.3 12.0 170
23/02/2021 18:30 9.1 82 0.0 0 0.0 3.5 12.5 170
23/02/2021 18:40 9.0 83 0.0 0 0.0 3.0 10.8 170
23/02/2021 18:50 8.7 84 0.0 0 0.0 2.3 8.1 164
23/02/2021 19:00 8.7 85 0.0 0 0.0 1.8 6.5 161
23/02/2021 19:10 8.5 86 0.0 0 0.0 1.5 5.5 155
23/02/2021 19:20 8.3 87 0.0 0 0.0 1.2 4.3 156
23/02/2021 19:30 8.2 88 0.0 0 0.0 1.3 4.7 148
23/02/2021 19:40 8.2 88 0.0 0 0.0 1.4 5.2 146
23/02/2021 19:50 8.2 88 0.0 0 0.0 1.7 6.0 156
23/02/2021 20:00 8.1 88 0.0 0 0.0 1.5 5.5 158
23/02/2021 20:10 8.1 88 0.0 0 0.0 1.6 5.7 154
23/02/2021 20:20 8.1 87 0.0 0 0.0 1.7 5.9 157
23/02/2021 20:30 8.3 85 0.0 0 0.0 2.7 9.7 162
23/02/2021 20:40 8.6 83 0.0 0 0.0 3.8 13.7 171
23/02/2021 20:50 8.4 83 0.0 0 0.0 2.6 9.4 166
23/02/2021 21:00 8.3 84 0.0 0 0.0 2.6 9.3 161
23/02/2021 21:10 8.4 82 0.0 0 0.0 2.5 8.8 162
23/02/2021 21:20 8.4 82 0.0 0 0.0 2.6 9.4 163
23/02/2021 21:30 8.4 83 0.0 0 0.0 2.5 9.1 162
23/02/2021 21:40 8.3 83 0.0 0 0.0 2.6 9.4 160
23/02/2021 21:50 8.4 82 0.0 0 0.0 2.5 9.0 159
23/02/2021 22:00 8.5 82 0.0 0 0.0 2.7 9.5 163
23/02/2021 22:10 8.6 81 0.0 0 0.0 3.0 10.7 165
23/02/2021 22:20 8.8 81 0.0 0 0.0 3.2 11.3 163
23/02/2021 22:30 8.9 81 0.0 0 0.0 3.2 11.4 162
23/02/2021 22:40 8.8 81 0.0 0 0.0 3.3 11.8 160
23/02/2021 22:50 9.1 81 0.0 0 0.0 3.9 14.0 163
23/02/2021 23:00 9.1 81 0.0 0 0.0 3.7 13.2 159
23/02/2021 23:10 9.1 82 0.0 0 0.0 3.7 13.4 165
23/02/2021 23:20 9.1 84 0.0 0 0.0 3.3 12.0 165
23/02/2021 23:30 8.9 85 0.0 0 0.0 3.1 11.1 165
23/02/2021 23:40 8.9 86 0.0 0 0.0 3.0 10.9 166
23/02/2021 23:50 8.9 87 0.0 0 0.0 3.5 12.5 165
Anterior Página 1 de 1 Siguiente

NOTA: Tipo de datos según el color:
   - Valores diarios o 10 minutos correctos
   - Valores diarios calculados a partir de un número de datos 10 minutos menor que 144 y mayor que 120, o de un número de datos semihorarios menor que 48 y mayor que 40 (caso de las estaciones de INTIA Y Ministerio)
   - Valores diez minutos estimados


Contacto        Enlaces        Aviso legal